Time;durP1;ratioP1;P1;durP2;ratioP2;P2;SDS_P1;SDS_P2;PMS_P1;PMS_P2;Temp;Humidity;BMP_temperature;BMP_pressure;BME280_temperature;BME280_humidity;BME280_pressure;Samples;Min_cycle;Max_cycle;Signal;HPM_P1;HPM_P2
2022/03/20 00:02:16;;;;;;;36.63;17.58;;;;;;;1.36;58.44;94800.94;5036001;28;20045;-47
2022/03/20 00:04:43;;;;;;;37.53;17.20;;;;;;;1.38;58.48;94796.78;5044671;28;20037;-47
2022/03/20 00:07:11;;;;;;;37.65;18.02;;;;;;;1.42;58.48;94786.09;5047686;28;20048;-50
2022/03/20 00:09:38;;;;;;;38.30;17.88;;;;;;;1.39;59.23;94797.59;5048479;28;20143;-49
2022/03/20 00:12:05;;;;;;;36.47;16.90;;;;;;;1.33;59.03;94788.91;5059081;28;20088;-54
2022/03/20 00:14:32;;;;;;;37.65;17.30;;;;;;;1.14;59.85;94772.41;5048497;28;20041;-57
2022/03/20 00:16:59;;;;;;;37.63;17.48;;;;;;;1.08;59.72;94755.59;5050993;28;20037;-54
2022/03/20 00:19:26;;;;;;;38.78;18.10;;;;;;;1.19;59.39;94754.06;5052283;28;20055;-50
2022/03/20 00:21:53;;;;;;;38.15;18.25;;;;;;;1.18;59.49;94765.97;5052860;28;20037;-47
2022/03/20 00:24:21;;;;;;;43.43;19.67;;;;;;;1.07;59.28;94764.06;5052078;28;20048;-46
2022/03/20 00:26:52;;;;;;;40.20;18.23;;;;;;;1.05;59.38;94758.97;5052447;28;20041;-50
2022/03/20 00:29:19;;;;;;;37.70;18.23;;;;;;;1.05;58.97;94756.28;5052296;28;20047;-47
2022/03/20 00:31:45;;;;;;;38.22;17.88;;;;;;;1.06;58.50;94751.66;5052621;28;20041;-46
2022/03/20 00:34:12;;;;;;;36.95;17.98;;;;;;;0.96;58.73;94750.94;5051422;28;20102;-49
2022/03/20 00:36:39;;;;;;;42.13;18.37;;;;;;;0.88;58.97;94746.41;5051761;28;20045;-46
2022/03/20 00:39:06;;;;;;;43.50;18.50;;;;;;;0.92;58.63;94754.66;5052467;28;20051;-57
2022/03/20 00:41:32;;;;;;;39.38;18.02;;;;;;;0.95;58.51;94748.59;5051895;28;20060;-47
2022/03/20 00:43:59;;;;;;;37.42;17.10;;;;;;;0.96;57.53;94756.34;5052420;28;20051;-47
2022/03/20 00:46:27;;;;;;;36.95;16.90;;;;;;;1.00;57.76;94748.38;5051938;28;20067;-53
2022/03/20 00:48:54;;;;;;;36.37;17.10;;;;;;;1.04;57.58;94756.59;5052098;28;20033;-49
2022/03/20 00:51:21;;;;;;;39.47;17.75;;;;;;;1.08;57.47;94752.91;5050393;28;20057;-55
2022/03/20 00:53:48;;;;;;;36.53;18.05;;;;;;;0.87;58.26;94752.97;5052000;28;20531;-50
2022/03/20 00:56:15;;;;;;;38.92;18.00;;;;;;;1.04;58.24;94756.59;5052180;28;20053;-46
2022/03/20 00:58:42;;;;;;;36.95;17.55;;;;;;;1.06;57.91;94752.44;5051294;28;20049;-46
2022/03/20 01:01:10;;;;;;;37.93;17.17;;;;;;;1.06;58.44;94752.44;5051835;28;20053;-46
2022/03/20 01:03:38;;;;;;;40.38;17.98;;;;;;;1.19;57.83;94739.75;5051552;28;20048;-52
2022/03/20 01:06:06;;;;;;;40.47;18.95;;;;;;;1.29;57.75;94744.72;5051794;28;20041;-59
2022/03/20 01:08:34;;;;;;;39.95;18.48;;;;;;;1.36;57.55;94736.06;5051270;28;20117;-55
2022/03/20 01:11:03;;;;;;;39.65;17.58;;;;;;;1.31;57.52;94741.66;5051790;28;20049;-46
2022/03/20 01:13:32;;;;;;;38.53;17.13;;;;;;;1.20;57.00;94744.03;5051345;28;20040;-52
2022/03/20 01:15:59;;;;;;;43.38;19.13;;;;;;;1.20;57.77;94744.81;5051694;28;20075;-53
2022/03/20 01:18:26;;;;;;;44.30;19.40;;;;;;;1.05;58.28;94758.16;5031082;28;20057;-59
2022/03/20 01:20:54;;;;;;;48.13;19.38;;;;;;;0.88;59.38;94757.22;5031624;28;20041;-50
2022/03/20 01:23:21;;;;;;;49.40;20.48;;;;;;;0.73;59.88;94753.25;5031101;28;20409;-49
2022/03/20 01:25:49;;;;;;;99.07;28.50;;;;;;;0.68;60.20;94756.13;5031805;28;20045;-55
2022/03/20 01:28:17;;;;;;;60.72;21.30;;;;;;;0.68;59.76;94755.34;5030912;28;20052;-48
2022/03/20 01:30:45;;;;;;;56.78;21.35;;;;;;;0.63;60.40;94753.66;5032950;28;20439;-54
2022/03/20 01:33:12;;;;;;;51.75;20.17;;;;;;;0.42;61.06;94755.56;5044287;28;20075;-50
2022/03/20 01:35:40;;;;;;;41.90;18.88;;;;;;;0.40;61.19;94750.50;5031136;28;20051;-47
2022/03/20 01:38:08;;;;;;;43.53;18.43;;;;;;;0.47;60.75;94758.09;5031335;28;20595;-53
2022/03/20 01:40:35;;;;;;;49.13;19.38;;;;;;;0.45;61.33;94758.41;5029607;28;20041;-55
2022/03/20 01:43:03;;;;;;;42.58;19.10;;;;;;;0.08;62.12;94760.09;5029901;28;20375;-57
2022/03/20 01:45:30;;;;;;;40.92;17.88;;;;;;;0.18;61.48;94757.00;5031086;28;20045;-46
2022/03/20 01:47:56;;;;;;;44.90;20.10;;;;;;;0.26;61.38;94755.38;5031276;28;20045;-57
2022/03/20 01:50:27;;;;;;;48.30;20.47;;;;;;;0.37;61.42;94745.78;5030864;28;20049;-47
2022/03/20 01:52:54;;;;;;;49.33;20.55;;;;;;;0.39;61.42;94757.81;5031128;28;20433;-49
2022/03/20 01:55:24;;;;;;;49.08;21.33;;;;;;;0.47;61.58;94756.19;5029628;28;20049;-49
2022/03/20 01:57:54;;;;;;;49.72;20.60;;;;;;;0.54;60.93;94753.75;5030980;28;20041;-47
2022/03/20 02:00:24;;;;;;;60.50;26.02;;;;;;;0.55;60.77;94760.72;5030050;28;20065;-48
2022/03/20 02:02:52;;;;;;;54.23;22.30;;;;;;;0.41;61.94;94754.78;5030971;28;20045;-48
2022/03/20 02:05:22;;;;;;;45.20;19.88;;;;;;;0.36;61.60;94757.69;5030329;28;20049;-50
2022/03/20 02:07:48;;;;;;;44.95;19.33;;;;;;;0.37;61.35;94751.97;5041731;28;20043;-50
2022/03/20 02:10:15;;;;;;;41.28;18.88;;;;;;;0.34;61.46;94758.03;5050777;28;20091;-53
2022/03/20 02:12:43;;;;;;;44.30;19.65;;;;;;;0.12;62.83;94761.03;5050150;28;20048;-51
2022/03/20 02:15:13;;;;;;;46.23;19.37;;;;;;;-0.07;63.55;94764.19;5050705;28;20059;-50
2022/03/20 02:17:43;;;;;;;40.92;17.92;;;;;;;0.04;62.80;94761.88;5050322;28;20148;-49
2022/03/20 02:20:11;;;;;;;43.95;18.70;;;;;;;0.02;62.96;94759.53;5048840;28;20043;-51
2022/03/20 02:22:47;;;;;;;43.22;18.40;;;;;;;-0.08;63.05;94758.00;5049967;28;20057;-52
2022/03/20 02:25:16;;;;;;;38.08;17.42;;;;;;;-0.11;62.97;94758.63;5048997;28;20053;-57
2022/03/20 02:27:44;;;;;;;42.97;18.97;;;;;;;-0.26;63.78;94751.91;5049691;28;20054;-56
2022/03/20 02:30:15;;;;;;;46.70;19.50;;;;;;;-0.29;64.16;94754.47;5049044;28;20045;-56
2022/03/20 02:32:44;;;;;;;39.67;18.35;;;;;;;-0.22;63.48;94746.66;5032177;28;20151;-54
2022/03/20 02:35:14;;;;;;;39.83;18.35;;;;;;;-0.28;63.94;94753.34;5045470;28;20055;-46
2022/03/20 02:37:49;;;;;;;43.60;19.95;;;;;;;-0.27;64.00;94750.31;5029963;28;20048;-47
2022/03/20 02:40:19;;;;;;;43.50;19.40;;;;;;;-0.26;63.78;94754.59;5028869;28;20495;-55
2022/03/20 02:42:51;;;;;;;38.88;17.35;;;;;;;-0.51;64.40;94747.44;5029286;28;20250;-49
2022/03/20 02:45:20;;;;;;;38.42;18.05;;;;;;;-0.46;64.12;94753.44;5029883;28;20049;-45
2022/03/20 02:47:49;;;;;;;40.28;18.05;;;;;;;-0.44;64.42;94751.22;5030023;28;20041;-53
2022/03/20 02:50:30;;;;;;;40.83;18.15;;;;;;;-0.55;64.34;94751.91;5029925;28;20038;-52
2022/03/20 02:53:14;;;;;;;45.57;19.07;;;;;;;-0.54;64.78;94751.56;5029409;28;20035;-57
2022/03/20 02:55:45;;;;;;;41.88;18.48;;;;;;;-0.50;64.36;94752.50;5029428;28;20049;-55
2022/03/20 02:58:17;;;;;;;41.28;18.25;;;;;;;-0.41;63.63;94755.16;5029802;28;20060;-51
2022/03/20 03:00:45;;;;;;;39.35;17.42;;;;;;;-0.42;64.03;94764.38;5028606;28;22198;-47
2022/03/20 03:03:13;;;;;;;39.10;18.42;;;;;;;-0.62;64.36;94761.28;5029736;28;20429;-46
2022/03/20 03:05:42;;;;;;;41.50;17.30;;;;;;;-0.70;64.64;94761.31;5029229;28;20045;-49
2022/03/20 03:11:01;;;;;;;40.50;19.05;;;;;;;-0.73;64.96;94773.50;5048811;28;20593;-50
2022/03/20 03:13:30;;;;;;;48.95;21.52;;;;;;;-0.60;64.82;94771.75;5049199;28;20071;-51
2022/03/20 03:15:59;;;;;;;39.72;18.45;;;;;;;-0.49;64.27;94770.25;5049728;28;20045;-52
2022/03/20 03:18:27;;;;;;;38.53;17.60;;;;;;;-0.36;64.24;94767.66;5046542;28;20045;-56
2022/03/20 03:20:54;;;;;;;37.92;18.10;;;;;;;-0.32;64.42;94771.28;5049483;28;20051;-55
2022/03/20 03:23:21;;;;;;;36.35;17.30;;;;;;;-0.26;63.79;94773.50;5048805;28;20041;-52
2022/03/20 03:25:48;;;;;;;38.13;17.77;;;;;;;-0.39;64.52;94779.09;5049715;28;20051;-51
2022/03/20 03:28:15;;;;;;;39.53;18.20;;;;;;;-0.43;64.44;94776.25;5049561;28;20053;-48
2022/03/20 03:30:44;;;;;;;41.07;18.23;;;;;;;-0.46;64.88;94783.09;5045311;28;20060;-56
2022/03/20 03:33:12;;;;;;;43.17;19.15;;;;;;;-0.43;64.98;94785.13;5027025;28;20046;-46
2022/03/20 03:35:42;;;;;;;38.40;17.95;;;;;;;-0.34;64.68;94787.00;5048094;28;20071;-54
2022/03/20 03:38:14;;;;;;;38.65;18.02;;;;;;;-0.17;64.19;94791.53;5049442;28;20047;-45
2022/03/20 03:40:43;;;;;;;40.20;18.85;;;;;;;-0.03;63.76;94792.09;5047921;28;20056;-50
2022/03/20 03:43:11;;;;;;;40.20;17.70;;;;;;;0.06;63.37;94798.25;5048044;28;20049;-47
2022/03/20 03:45:39;;;;;;;38.58;18.27;;;;;;;-0.02;63.61;94793.66;5048672;28;20049;-50
2022/03/20 03:48:07;;;;;;;36.38;18.05;;;;;;;-0.08;64.13;94797.66;5064566;28;20040;-58
2022/03/20 03:50:36;;;;;;;38.47;17.55;;;;;;;-0.08;63.87;94793.06;5048622;28;20041;-50
2022/03/20 03:53:04;;;;;;;40.45;19.35;;;;;;;0.06;64.38;94800.13;5053316;28;20474;-54
2022/03/20 03:55:31;;;;;;;42.77;19.30;;;;;;;0.22;63.51;94793.03;5052800;28;20506;-50
2022/03/20 03:57:59;;;;;;;42.47;18.90;;;;;;;0.39;63.23;94795.63;5053080;28;20037;-46
2022/03/20 04:00:27;;;;;;;40.47;19.27;;;;;;;-0.13;64.83;94795.94;5051003;28;20049;-48
2022/03/20 04:02:54;;;;;;;37.20;18.42;;;;;;;-0.07;64.79;94802.75;5053018;28;20041;-46
2022/03/20 04:05:21;;;;;;;38.25;18.35;;;;;;;0.10;64.15;94814.53;5052509;28;20045;-50
2022/03/20 04:07:48;;;;;;;37.20;18.27;;;;;;;0.29;63.92;94800.63;5052881;28;20032;-53
2022/03/20 04:10:16;;;;;;;39.67;18.27;;;;;;;0.21;64.22;94804.97;5053134;28;20041;-53
2022/03/20 04:12:44;;;;;;;39.38;19.05;;;;;;;0.34;64.11;94811.22;5067206;28;20041;-52
2022/03/20 04:15:12;;;;;;;38.63;18.73;;;;;;;0.30;64.03;94813.00;5052906;28;20056;-58
2022/03/20 04:17:40;;;;;;;40.70;19.58;;;;;;;0.12;64.55;94813.13;5052347;28;20041;-57
2022/03/20 04:20:08;;;;;;;38.33;18.43;;;;;;;0.33;64.31;94817.75;5052893;28;20045;-51
2022/03/20 04:22:38;;;;;;;42.75;19.92;;;;;;;0.46;63.95;94818.59;5052571;28;20056;-52
2022/03/20 04:25:06;;;;;;;68.10;29.75;;;;;;;0.58;63.52;94814.09;5052799;28;20040;-51
2022/03/20 04:27:33;;;;;;;41.95;18.90;;;;;;;0.54;62.68;94813.16;5052522;28;20696;-55
2022/03/20 04:30:00;;;;;;;42.42;18.98;;;;;;;0.40;63.59;94820.72;5052661;28;20045;-54
2022/03/20 04:32:26;;;;;;;38.90;18.30;;;;;;;0.25;64.31;94813.19;5052230;28;20045;-47
2022/03/20 04:34:53;;;;;;;36.03;17.40;;;;;;;0.35;64.45;94810.13;5052476;28;20045;-49
2022/03/20 04:37:21;;;;;;;40.83;19.20;;;;;;;0.46;64.41;94816.69;5051987;28;20048;-57
2022/03/20 04:39:49;;;;;;;46.78;21.58;;;;;;;0.55;64.27;94822.84;5052437;28;20037;-51
2022/03/20 04:42:15;;;;;;;44.45;20.63;;;;;;;0.60;63.63;94819.13;5052578;28;20048;-51
2022/03/20 04:44:43;;;;;;;49.47;22.80;;;;;;;0.66;63.43;94817.81;5052033;28;20044;-49
2022/03/20 04:58:31;;;;;;;40.30;18.60;;;;;;;0.12;64.75;94833.91;5052100;28;20051;-55
2022/03/20 05:00:58;;;;;;;41.90;18.23;;;;;;;0.09;65.31;94843.44;5049476;28;20517;-58
2022/03/20 05:03:25;;;;;;;36.40;18.67;;;;;;;0.03;64.75;94836.66;5050188;28;20401;-48
2022/03/20 05:05:52;;;;;;;41.38;18.58;;;;;;;0.19;64.71;94836.88;5051942;28;20045;-47
2022/03/20 05:08:19;;;;;;;43.17;20.10;;;;;;;0.29;64.35;94855.41;5051314;28;20045;-49
2022/03/20 05:13:31;;;;;;;40.60;18.58;;;;;;;0.05;65.00;94857.94;5051457;28;20052;-49
2022/03/20 05:15:58;;;;;;;41.17;19.60;;;;;;;0.04;65.31;94862.53;5052000;28;20055;-56
2022/03/20 05:18:25;;;;;;;43.63;20.02;;;;;;;0.11;64.98;94862.03;5031388;28;20471;-53
2022/03/20 05:20:55;;;;;;;43.30;21.33;;;;;;;0.14;64.95;94864.06;5031885;28;20049;-46
2022/03/20 05:23:23;;;;;;;42.77;20.57;;;;;;;0.19;64.52;94869.28;5031365;28;20107;-51
2022/03/20 05:25:49;;;;;;;46.22;21.45;;;;;;;0.23;65.12;94870.22;5031702;28;20052;-46
2022/03/20 05:28:17;;;;;;;44.67;20.92;;;;;;;0.23;64.99;94864.81;5031841;28;20057;-47
2022/03/20 05:30:44;;;;;;;46.50;21.30;;;;;;;0.21;64.91;94867.03;5030602;28;21713;-50
2022/03/20 05:33:12;;;;;;;40.85;19.77;;;;;;;0.01;65.85;94867.78;5031425;28;20052;-46
2022/03/20 05:35:39;;;;;;;42.90;20.23;;;;;;;-0.06;65.86;94866.41;5029865;28;20054;-54
2022/03/20 05:38:09;;;;;;;39.88;18.92;;;;;;;-0.14;66.04;94874.50;5031591;28;20049;-58
2022/03/20 05:40:38;;;;;;;40.03;19.25;;;;;;;-0.24;66.21;94881.84;5030849;28;20052;-47
2022/03/20 05:43:08;;;;;;;38.97;19.38;;;;;;;-0.18;66.20;94885.16;5031276;28;20483;-51
2022/03/20 05:45:39;;;;;;;44.08;20.45;;;;;;;-0.11;65.59;94879.25;5030871;28;20041;-51
2022/03/20 05:48:09;;;;;;;42.67;19.33;;;;;;;-0.07;65.99;94880.97;5031317;28;20049;-54
2022/03/20 05:50:42;;;;;;;41.33;19.42;;;;;;;0.03;65.46;94881.75;5030567;28;20037;-48
2022/03/20 05:53:08;;;;;;;42.58;19.38;;;;;;;0.07;64.84;94880.78;5029865;28;20049;-52
2022/03/20 05:58:20;;;;;;;41.58;19.27;;;;;;;-0.03;65.35;94876.53;5030910;28;20073;-54
2022/03/20 06:00:47;;;;;;;39.53;19.30;;;;;;;-0.03;65.71;94890.00;5033176;28;20482;-54
2022/03/20 06:03:15;;;;;;;41.65;19.40;;;;;;;0.08;64.93;94892.34;5039688;28;20038;-47
2022/03/20 06:05:42;;;;;;;42.53;19.42;;;;;;;0.03;64.99;94895.25;5029171;28;20478;-46
2022/03/20 06:08:08;;;;;;;45.70;21.45;;;;;;;0.05;65.00;94903.81;5044439;28;20052;-59
2022/03/20 06:10:35;;;;;;;47.38;23.42;;;;;;;0.12;65.13;94893.28;5049029;28;20056;-57
2022/03/20 06:13:05;;;;;;;52.23;25.47;;;;;;;0.19;64.64;94904.38;5049421;28;20071;-50
2022/03/20 06:15:32;;;;;;;44.60;21.17;;;;;;;0.34;64.71;94898.44;5049748;28;20049;-48
2022/03/20 06:18:04;;;;;;;43.88;21.27;;;;;;;0.52;63.89;94901.78;5050703;28;20385;-50
2022/03/20 06:20:34;;;;;;;44.08;21.48;;;;;;;0.59;63.51;94902.09;5050036;28;20045;-49
2022/03/20 06:23:02;;;;;;;43.53;21.40;;;;;;;0.72;63.60;94910.25;5050666;28;20049;-46
2022/03/20 06:25:29;;;;;;;42.93;21.27;;;;;;;0.76;63.25;94916.59;5049814;28;20053;-48
2022/03/20 06:27:58;;;;;;;43.63;20.92;;;;;;;0.78;62.97;94919.75;5050476;28;20053;-54
2022/03/20 06:30:26;;;;;;;44.78;20.90;;;;;;;0.49;64.09;94923.28;5049695;28;20044;-52
2022/03/20 06:32:55;;;;;;;43.45;20.92;;;;;;;0.53;64.46;94927.69;5050215;28;20045;-50
2022/03/20 06:35:22;;;;;;;43.38;21.63;;;;;;;0.53;64.56;94924.22;5049672;28;20057;-54
2022/03/20 06:37:52;;;;;;;48.83;22.47;;;;;;;0.71;63.68;94928.41;5050272;28;20167;-55
2022/03/20 06:40:20;;;;;;;44.80;21.92;;;;;;;0.84;63.15;94929.25;5049654;28;20067;-48
2022/03/20 06:42:47;;;;;;;47.97;22.38;;;;;;;1.11;62.65;94927.16;5050024;28;20063;-49
2022/03/20 06:45:15;;;;;;;41.38;20.48;;;;;;;1.32;62.11;94927.16;5049999;28;20142;-52
2022/03/20 06:47:43;;;;;;;45.97;21.25;;;;;;;1.59;61.26;94923.09;5049656;28;20036;-50
2022/03/20 06:50:13;;;;;;;42.67;20.13;;;;;;;1.77;60.90;94920.97;5048727;28;20513;-50
2022/03/20 06:52:40;;;;;;;41.15;20.33;;;;;;;1.98;59.98;94924.41;5049582;28;20048;-59
2022/03/20 06:55:12;;;;;;;52.38;26.13;;;;;;;2.34;59.68;94936.44;5049932;28;20049;-49
2022/03/20 06:57:44;;;;;;;41.97;20.42;;;;;;;2.34;58.75;94936.44;5049541;28;20047;-46
2022/03/20 07:00:12;;;;;;;42.38;21.98;;;;;;;1.98;59.65;94931.75;5047015;28;20052;-51
2022/03/20 07:02:39;;;;;;;44.17;21.27;;;;;;;1.73;60.87;94936.31;5030706;28;20049;-52
2022/03/20 07:05:07;;;;;;;42.88;21.15;;;;;;;2.04;60.30;94927.69;5047738;28;20049;-49
2022/03/20 07:07:36;;;;;;;44.42;21.70;;;;;;;2.40;59.28;94924.25;5048622;28;20041;-48
2022/03/20 07:10:04;;;;;;;44.58;22.10;;;;;;;2.40;59.01;94926.16;5049321;28;20140;-47
2022/03/20 07:12:31;;;;;;;43.10;21.08;;;;;;;2.67;58.23;94929.31;5048633;28;20075;-49
2022/03/20 07:14:57;;;;;;;45.00;21.80;;;;;;;2.91;58.17;94934.69;5047657;28;20045;-53
2022/03/20 07:17:25;;;;;;;44.15;21.80;;;;;;;3.24;56.88;94932.94;5047018;28;20045;-50
2022/03/20 07:19:52;;;;;;;40.60;21.00;;;;;;;2.56;58.39;94929.78;5049015;28;20051;-50
2022/03/20 07:22:20;;;;;;;39.40;20.90;;;;;;;2.45;59.01;94936.75;5048343;28;20131;-54
2022/03/20 07:24:48;;;;;;;40.63;20.50;;;;;;;2.95;59.00;94938.31;5049128;28;20074;-48
2022/03/20 07:30:03;;;;;;;41.92;21.60;;;;;;;4.44;55.55;94938.47;5047863;28;20813;-49
2022/03/20 07:32:30;;;;;;;39.90;21.95;;;;;;;7.06;47.48;94933.44;5048108;28;20452;-46
2022/03/20 07:34:56;;;;;;;39.33;21.95;;;;;;;9.64;42.87;94926.16;5048680;28;20052;-46
2022/03/20 07:37:26;;;;;;;37.10;22.27;;;;;;;11.43;39.06;94933.84;5047940;28;20041;-50
2022/03/20 07:39:53;;;;;;;36.70;22.37;;;;;;;12.75;35.93;94936.00;5048678;28;20299;-47
2022/03/20 07:42:20;;;;;;;36.58;23.10;;;;;;;12.38;35.38;94936.66;5047985;28;20114;-50
2022/03/20 07:44:47;;;;;;;34.90;23.50;;;;;;;12.63;35.63;94938.47;5048523;28;20043;-51
2022/03/20 07:47:22;;;;;;;33.47;22.85;;;;;;;12.92;33.41;94936.31;5048229;28;20098;-53
2022/03/20 07:49:50;;;;;;;36.13;23.95;;;;;;;14.11;32.83;94944.19;5040309;28;20869;-48
2022/03/20 07:52:18;;;;;;;33.57;22.87;;;;;;;14.45;31.30;94946.13;5048423;28;20048;-49
2022/03/20 07:54:46;;;;;;;35.75;23.02;;;;;;;14.81;31.18;94951.16;5047510;28;21642;-48
2022/03/20 07:57:13;;;;;;;33.67;23.77;;;;;;;14.30;31.12;94948.28;5059449;28;20048;-48
2022/03/20 07:59:42;;;;;;;33.67;23.33;;;;;;;13.47;32.74;94943.72;5047803;28;20037;-50
2022/03/20 08:02:09;;;;;;;34.03;23.73;;;;;;;15.02;31.44;94947.28;5036091;28;20041;-51
2022/03/20 08:04:36;;;;;;;33.50;24.10;;;;;;;16.48;28.59;94949.34;5042607;28;20068;-53
2022/03/20 08:07:04;;;;;;;32.28;23.38;;;;;;;16.36;27.81;94956.31;5060619;28;20071;-55
2022/03/20 08:09:31;;;;;;;32.08;23.08;;;;;;;17.33;27.16;94958.94;5028307;28;20048;-48
2022/03/20 08:11:58;;;;;;;30.83;22.75;;;;;;;17.10;26.47;94955.13;5029068;28;20041;-52
2022/03/20 08:14:27;;;;;;;31.63;22.92;;;;;;;18.01;25.71;94962.75;5028743;28;20079;-50
2022/03/20 08:16:54;;;;;;;30.77;22.37;;;;;;;17.14;26.24;94964.13;5036385;28;20041;-52
2022/03/20 08:19:23;;;;;;;31.17;23.35;;;;;;;15.24;29.20;94961.56;5048316;28;20049;-51
2022/03/20 08:21:51;;;;;;;32.03;23.10;;;;;;;15.51;28.65;94959.53;5048723;28;20037;-51
2022/03/20 08:24:18;;;;;;;31.60;21.77;;;;;;;13.94;29.95;94963.31;5048581;28;20055;-52
2022/03/20 08:26:45;;;;;;;32.20;22.35;;;;;;;15.71;28.36;94956.75;5046599;28;20596;-51
2022/03/20 08:29:13;;;;;;;30.67;20.77;;;;;;;16.22;26.57;94951.09;5048666;28;20049;-53
2022/03/20 08:31:44;;;;;;;27.65;19.65;;;;;;;16.09;25.76;94948.16;5048196;28;20049;-52
2022/03/20 08:34:12;;;;;;;26.98;19.48;;;;;;;16.13;25.23;94948.88;5049069;28;20477;-51
2022/03/20 08:36:39;;;;;;;27.50;19.20;;;;;;;16.01;25.41;94954.28;5048325;28;20043;-49
2022/03/20 08:39:06;;;;;;;26.50;18.33;;;;;;;15.44;26.11;94954.09;5052240;28;20076;-52
2022/03/20 08:41:34;;;;;;;26.10;18.13;;;;;;;15.58;26.01;94948.31;5051906;28;20053;-51
2022/03/20 08:44:08;;;;;;;28.60;17.98;;;;;;;13.94;27.41;94951.47;5052220;28;20049;-50
2022/03/20 08:46:36;;;;;;;27.40;18.55;;;;;;;13.77;28.42;94961.53;5051506;28;20057;-48
2022/03/20 08:49:07;;;;;;;26.15;17.48;;;;;;;13.14;28.69;94962.50;5052274;28;20051;-51
2022/03/20 08:51:34;;;;;;;26.98;17.35;;;;;;;12.09;30.19;94958.84;5051809;28;20053;-51
2022/03/20 08:54:02;;;;;;;26.93;16.90;;;;;;;11.92;31.41;94962.44;5052172;28;20048;-56
2022/03/20 08:56:29;;;;;;;29.63;17.35;;;;;;;11.52;31.85;94962.50;5051876;28;20047;-50
2022/03/20 08:58:56;;;;;;;26.33;16.38;;;;;;;11.33;31.82;94968.44;5052075;28;20482;-51
2022/03/20 09:01:23;;;;;;;29.48;16.45;;;;;;;11.52;31.69;94970.75;5045338;28;20483;-53
2022/03/20 09:03:50;;;;;;;27.17;16.10;;;;;;;11.76;31.45;94968.34;5031924;28;20095;-52
2022/03/20 09:06:21;;;;;;;26.70;15.93;;;;;;;12.81;30.10;94969.44;5032044;28;20050;-50
2022/03/20 09:08:49;;;;;;;26.67;16.00;;;;;;;12.62;30.35;94964.47;5048847;28;20573;-56
2022/03/20 09:11:17;;;;;;;27.48;16.38;;;;;;;12.87;29.78;94967.81;5051573;28;20067;-54
2022/03/20 09:13:44;;;;;;;28.85;16.90;;;;;;;12.97;29.40;94960.66;5049428;28;20676;-50
2022/03/20 09:19:03;;;;;;;25.40;16.10;;;;;;;13.54;28.92;94957.44;5050719;28;20786;-54
2022/03/20 09:21:36;;;;;;;26.17;16.17;;;;;;;13.30;28.95;94967.50;5051173;28;20051;-47
2022/03/20 09:24:04;;;;;;;25.42;15.95;;;;;;;13.62;29.13;94960.09;5050494;28;20067;-55
2022/03/20 09:26:31;;;;;;;26.60;16.20;;;;;;;13.04;29.26;94957.06;5051062;28;20490;-53
2022/03/20 09:28:58;;;;;;;25.10;15.43;;;;;;;14.19;28.18;94956.72;5051370;28;20041;-49
2022/03/20 09:31:26;;;;;;;30.17;16.40;;;;;;;14.03;28.75;94959.28;5050919;28;20059;-50
2022/03/20 09:33:53;;;;;;;27.08;15.38;;;;;;;14.81;26.88;94954.72;5051231;28;20086;-50
2022/03/20 09:36:20;;;;;;;25.20;14.60;;;;;;;15.03;26.31;94960.72;5050985;28;20056;-54
2022/03/20 09:38:47;;;;;;;25.80;15.68;;;;;;;14.87;25.86;94953.06;5051205;28;20043;-59
2022/03/20 09:41:14;;;;;;;26.48;14.70;;;;;;;15.22;26.62;94953.69;5051226;28;20545;-50
2022/03/20 09:43:43;;;;;;;25.00;14.30;;;;;;;16.55;25.02;94956.72;5050773;28;20053;-52
2022/03/20 09:46:20;;;;;;;23.70;14.07;;;;;;;16.92;23.76;94955.53;5051368;28;20041;-55
2022/03/20 09:48:48;;;;;;;21.48;14.43;;;;;;;17.14;22.85;94953.03;5049826;28;21024;-54
2022/03/20 09:51:15;;;;;;;21.90;14.00;;;;;;;18.68;22.04;94947.34;5051253;28;20045;-58
2022/03/20 09:53:41;;;;;;;21.42;14.02;;;;;;;19.05;21.44;94943.03;5049451;28;20043;-49
2022/03/20 09:56:12;;;;;;;19.60;13.47;;;;;;;22.09;19.06;94952.50;5051040;28;20081;-52
2022/03/20 09:58:39;;;;;;;19.85;13.07;;;;;;;23.41;16.73;94942.09;5050433;28;20053;-52
2022/03/20 10:01:05;;;;;;;19.50;14.27;;;;;;;21.34;17.58;94942.41;5049342;28;20045;-52
2022/03/20 10:03:32;;;;;;;17.10;13.15;;;;;;;24.49;15.19;94954.25;5050237;28;20048;-56
2022/03/20 10:06:09;;;;;;;16.27;12.43;;;;;;;25.65;13.99;94946.72;5050867;28;20041;-52
2022/03/20 10:08:36;;;;;;;16.63;12.30;;;;;;;27.60;13.05;94956.16;5050179;28;20049;-55
2022/03/20 10:11:18;;;;;;;15.73;12.65;;;;;;;27.36;12.80;94938.84;5050677;28;20049;-49
2022/03/20 10:14:13;;;;;;;16.98;13.90;;;;;;;19.87;18.24;94947.16;5049730;28;20811;-52
2022/03/20 10:16:50;;;;;;;19.33;13.80;;;;;;;17.34;21.38;94944.63;5050112;28;20048;-51
2022/03/20 10:19:23;;;;;;;19.67;13.60;;;;;;;19.29;19.06;94954.59;5050690;28;20505;-58
2022/03/20 10:22:00;;;;;;;20.43;13.53;;;;;;;19.69;19.13;94934.56;5049799;28;21780;-54
2022/03/20 10:24:29;;;;;;;18.95;13.43;;;;;;;20.26;18.03;94934.59;5049712;28;20730;-52
2022/03/20 10:26:59;;;;;;;18.02;13.25;;;;;;;21.22;17.38;94932.16;5050446;28;20048;-53
2022/03/20 10:29:30;;;;;;;20.10;12.90;;;;;;;21.05;17.39;94933.66;5049838;28;20049;-51
2022/03/20 10:32:08;;;;;;;19.48;14.07;;;;;;;17.91;20.68;94931.28;5048964;28;20049;-54
2022/03/20 10:34:53;;;;;;;20.23;13.60;;;;;;;21.92;17.07;94928.88;5049943;28;20465;-51
2022/03/20 10:37:41;;;;;;;19.23;13.35;;;;;;;21.41;17.28;94926.59;5049598;28;20045;-55
2022/03/20 10:40:10;;;;;;;18.75;12.75;;;;;;;23.36;15.87;94925.91;5050352;28;20048;-56
2022/03/20 10:42:37;;;;;;;19.77;12.95;;;;;;;19.30;19.69;94919.22;5049832;28;20405;-54
2022/03/20 10:45:06;;;;;;;18.15;12.70;;;;;;;18.34;21.48;94918.94;5050146;28;20047;-57
2022/03/20 10:47:33;;;;;;;18.93;11.77;;;;;;;22.16;18.11;94923.44;5049682;28;20055;-55
2022/03/20 10:50:07;;;;;;;18.00;12.32;;;;;;;23.33;17.20;94908.03;5049850;28;20383;-53
2022/03/20 10:52:38;;;;;;;16.25;12.05;;;;;;;21.30;18.03;94915.88;5049337;28;20049;-52
2022/03/20 10:55:10;;;;;;;18.25;12.50;;;;;;;20.23;19.41;94918.78;5049905;28;20045;-53
2022/03/20 10:57:37;;;;;;;18.70;12.40;;;;;;;20.62;18.88;94907.41;5049317;28;20075;-57
2022/03/20 11:00:11;;;;;;;19.43;11.93;;;;;;;22.09;17.98;94915.38;5048987;28;20045;-55
2022/03/20 11:02:39;;;;;;;17.83;11.82;;;;;;;23.30;17.24;94914.63;5048980;28;20052;-53
2022/03/20 11:05:08;;;;;;;17.40;11.52;;;;;;;24.08;16.80;94917.50;5049044;28;20052;-52
2022/03/20 11:07:36;;;;;;;17.38;10.70;;;;;;;22.24;18.41;94913.53;5048516;28;20049;-51
2022/03/20 11:10:10;;;;;;;17.50;11.23;;;;;;;23.18;17.58;94915.63;5049629;28;20057;-55
2022/03/20 11:12:38;;;;;;;18.07;10.63;;;;;;;23.24;17.29;94912.91;5064729;28;20511;-58
2022/03/20 11:15:06;;;;;;;16.70;11.50;;;;;;;22.11;18.51;94915.66;5049716;28;20041;-50
2022/03/20 11:17:48;;;;;;;17.15;11.10;;;;;;;21.94;18.36;94912.44;5047776;28;20048;-50
2022/03/20 11:20:17;;;;;;;16.40;11.02;;;;;;;22.87;17.55;94913.06;5049190;28;20041;-52
2022/03/20 11:22:52;;;;;;;17.33;11.82;;;;;;;22.12;18.40;94920.03;5048317;28;20803;-52
2022/03/20 11:25:25;;;;;;;17.47;11.57;;;;;;;20.68;20.05;94922.31;5046525;28;20059;-55
2022/03/20 11:27:56;;;;;;;18.00;11.20;;;;;;;20.34;20.09;94923.94;5037053;28;20045;-51
2022/03/20 11:30:28;;;;;;;18.25;11.32;;;;;;;23.15;17.32;94912.97;5048960;28;20317;-56
2022/03/20 11:32:58;;;;;;;17.73;10.68;;;;;;;22.75;17.21;94917.59;5049388;28;20041;-51
2022/03/20 11:35:30;;;;;;;14.35;10.13;;;;;;;20.12;19.18;94915.59;5048766;28;20066;-59
2022/03/20 11:38:22;;;;;;;16.90;9.60;;;;;;;20.05;19.01;94913.84;5048156;28;20083;-49
2022/03/20 11:41:23;;;;;;;17.30;9.70;;;;;;;20.30;19.23;94912.16;5047298;28;20044;-55
2022/03/20 11:44:11;;;;;;;14.60;8.82;;;;;;;19.56;20.49;94914.38;5048257;28;20114;-47
2022/03/20 11:46:39;;;;;;;17.42;9.27;;;;;;;17.20;23.49;94908.91;5048672;28;20432;-56
2022/03/20 11:49:20;;;;;;;17.65;9.18;;;;;;;16.91;24.44;94903.28;5049162;28;20082;-50
2022/03/20 11:51:55;;;;;;;18.40;9.07;;;;;;;16.50;23.61;94899.03;5048303;28;21684;-50
2022/03/20 11:54:29;;;;;;;14.75;8.68;;;;;;;16.53;25.17;94903.72;5048802;28;20067;-52
2022/03/20 11:56:58;;;;;;;17.73;9.43;;;;;;;17.07;24.70;94905.28;5048917;28;20498;-48